Time;durP1;ratioP1;P1;durP2;ratioP2;P2;SDS_P1;SDS_P2;PMS_P1;PMS_P2;Temp;Humidity;BMP_temperature;BMP_pressure;BME280_temperature;BME280_humidity;BME280_pressure;Samples;Min_cycle;Max_cycle;Signal;HPM_P1;HPM_P2
2023/09/13 00:01:31;;;;;;;4.95;1.33;;;17.40;99.90;;;;;;4988166;28;20421;-65
2023/09/13 00:03:58;;;;;;;3.75;1.00;;;17.40;99.90;;;;;;5006141;28;20045;-65
2023/09/13 00:06:24;;;;;;;5.15;1.38;;;17.40;99.90;;;;;;5007159;28;20069;-64
2023/09/13 00:08:50;;;;;;;7.13;1.23;;;17.40;99.90;;;;;;5008072;28;20119;-65
2023/09/13 00:11:16;;;;;;;3.50;1.10;;;17.30;99.90;;;;;;4988819;28;20069;-65
2023/09/13 00:13:42;;;;;;;2.25;0.80;;;17.30;99.90;;;;;;4990690;28;20416;-65
2023/09/13 00:16:09;;;;;;;3.70;1.05;;;17.40;99.90;;;;;;4989715;28;20061;-65
2023/09/13 00:18:35;;;;;;;4.30;0.98;;;17.30;99.90;;;;;;5007988;28;20042;-65
2023/09/13 00:21:01;;;;;;;2.72;0.95;;;17.30;99.90;;;;;;4973128;28;20076;-64
2023/09/13 00:23:26;;;;;;;3.65;1.27;;;17.30;99.90;;;;;;5007105;28;20049;-65
2023/09/13 00:25:52;;;;;;;3.33;1.10;;;17.30;99.90;;;;;;4990267;28;20046;-65
2023/09/13 00:28:18;;;;;;;4.25;1.20;;;17.20;99.90;;;;;;4988294;28;20435;-65
2023/09/13 00:30:43;;;;;;;3.95;1.15;;;17.20;99.90;;;;;;5006426;28;20093;-65
2023/09/13 00:33:09;;;;;;;2.78;1.00;;;17.20;99.90;;;;;;5006186;28;20057;-65
2023/09/13 00:35:35;;;;;;;6.47;0.90;;;17.20;99.90;;;;;;5007578;28;20526;-65
2023/09/13 00:38:01;;;;;;;3.28;1.23;;;17.20;99.90;;;;;;5006901;28;20119;-65
2023/09/13 00:40:27;;;;;;;2.88;1.10;;;17.20;99.90;;;;;;5006747;28;20233;-65
2023/09/13 00:42:53;;;;;;;5.25;1.23;;;17.10;99.90;;;;;;4989429;28;20657;-65
2023/09/13 00:45:20;;;;;;;4.13;1.23;;;17.10;99.90;;;;;;4988803;28;20124;-65
2023/09/13 00:47:47;;;;;;;2.53;1.27;;;17.10;99.90;;;;;;4989886;28;20057;-65
2023/09/13 00:50:15;;;;;;;3.05;1.10;;;17.20;99.90;;;;;;5006546;28;20050;-65
2023/09/13 00:52:42;;;;;;;3.40;1.05;;;17.10;99.90;;;;;;5007277;28;20041;-65
2023/09/13 00:55:10;;;;;;;3.70;1.38;;;17.10;99.90;;;;;;5006184;28;20046;-65
2023/09/13 00:57:36;;;;;;;5.70;1.35;;;17.10;99.90;;;;;;5006780;28;20102;-65
2023/09/13 01:00:12;;;;;;;3.72;0.93;;;17.10;99.90;;;;;;5007098;28;20046;-65
2023/09/13 01:02:41;;;;;;;3.55;0.75;;;17.10;99.90;;;;;;4990837;28;20496;-65
2023/09/13 01:05:13;;;;;;;4.45;0.88;;;17.10;99.90;;;;;;4989655;28;20487;-65
2023/09/13 01:07:43;;;;;;;3.72;1.10;;;17.10;99.90;;;;;;4991890;28;20092;-65
2023/09/13 01:10:11;;;;;;;5.38;1.27;;;17.10;99.90;;;;;;5007333;28;20127;-65
2023/09/13 01:12:37;;;;;;;2.97;1.00;;;17.10;99.90;;;;;;5005539;28;20042;-65
2023/09/13 01:15:08;;;;;;;4.38;0.90;;;17.10;99.90;;;;;;4998091;28;20038;-65
2023/09/13 01:17:53;;;;;;;3.67;1.17;;;17.10;99.90;;;;;;4988730;28;20052;-65
2023/09/13 01:20:30;;;;;;;3.03;0.75;;;17.10;99.90;;;;;;5005393;28;20415;-65
2023/09/13 01:23:26;;;;;;;4.13;0.90;;;17.10;99.90;;;;;;5007084;28;20856;-65
2023/09/13 01:25:57;;;;;;;3.50;0.85;;;17.10;99.90;;;;;;5001925;28;20467;-65
2023/09/13 01:28:23;;;;;;;7.75;1.25;;;17.10;99.90;;;;;;5005823;28;20511;-65
2023/09/13 01:30:49;;;;;;;2.95;1.00;;;17.10;99.90;;;;;;5006481;28;20062;-65
2023/09/13 01:33:15;;;;;;;6.93;1.33;;;17.10;99.90;;;;;;4987622;28;20064;-65
2023/09/13 01:35:41;;;;;;;4.70;1.05;;;17.10;99.90;;;;;;5005335;28;20128;-65
2023/09/13 01:38:06;;;;;;;2.67;0.70;;;17.00;99.90;;;;;;5005544;28;20117;-65
2023/09/13 01:40:36;;;;;;;8.63;1.02;;;17.10;99.90;;;;;;5006230;28;20136;-65
2023/09/13 01:43:04;;;;;;;3.00;0.95;;;17.10;99.90;;;;;;5005940;28;20030;-65
2023/09/13 01:45:32;;;;;;;2.85;1.08;;;17.10;99.90;;;;;;5004032;28;20038;-65
2023/09/13 01:47:59;;;;;;;3.78;1.10;;;17.10;99.90;;;;;;5005851;28;20496;-65
2023/09/13 01:50:26;;;;;;;4.45;1.20;;;17.10;99.90;;;;;;5005414;28;20050;-65
2023/09/13 01:52:51;;;;;;;6.18;1.40;;;17.00;99.90;;;;;;5006855;28;20042;-65
2023/09/13 01:55:17;;;;;;;2.38;1.17;;;17.00;99.90;;;;;;4986933;28;20806;-65
2023/09/13 01:57:44;;;;;;;4.53;0.90;;;17.10;99.90;;;;;;4988292;28;20418;-65
2023/09/13 02:00:11;;;;;;;3.67;1.10;;;17.00;99.90;;;;;;5005603;28;20030;-65
2023/09/13 02:02:36;;;;;;;3.25;1.20;;;17.00;99.90;;;;;;5005233;28;20449;-65
2023/09/13 02:05:03;;;;;;;8.93;1.60;;;16.90;99.90;;;;;;5004974;28;20065;-65
2023/09/13 02:07:29;;;;;;;3.90;0.90;;;17.00;99.90;;;;;;4968295;28;20089;-65
2023/09/13 02:09:54;;;;;;;1.42;0.88;;;16.90;99.90;;;;;;4995429;28;20050;-65
2023/09/13 02:12:20;;;;;;;6.63;1.02;;;16.90;99.90;;;;;;4986921;28;20049;-65
2023/09/13 02:14:46;;;;;;;9.32;1.30;;;16.80;99.90;;;;;;5008527;28;20045;-66
2023/09/13 02:17:11;;;;;;;1.55;0.70;;;16.80;99.90;;;;;;5003428;28;20049;-66
2023/09/13 02:19:37;;;;;;;6.07;1.25;;;16.80;99.90;;;;;;5009534;28;20129;-65
2023/09/13 02:22:03;;;;;;;3.03;0.93;;;16.80;99.90;;;;;;5008827;28;20042;-65
2023/09/13 02:24:29;;;;;;;9.52;1.08;;;16.80;99.90;;;;;;4991117;28;20601;-65
2023/09/13 02:26:58;;;;;;;7.22;1.63;;;16.80;99.90;;;;;;4992335;28;20046;-65
2023/09/13 02:29:24;;;;;;;5.97;1.05;;;16.80;99.90;;;;;;5009133;28;20093;-65
2023/09/13 02:31:50;;;;;;;2.60;0.70;;;16.80;99.90;;;;;;4991998;28;20158;-65
2023/09/13 02:34:19;;;;;;;4.03;0.82;;;16.80;99.90;;;;;;5007114;28;20088;-65
2023/09/13 02:36:45;;;;;;;4.82;1.17;;;16.80;99.90;;;;;;4975731;28;20065;-65
2023/09/13 02:39:36;;;;;;;3.88;1.08;;;16.80;99.90;;;;;;4981270;28;20065;-65
2023/09/13 02:42:03;;;;;;;2.88;0.88;;;16.70;99.90;;;;;;5009269;28;20108;-65
2023/09/13 02:44:31;;;;;;;3.47;1.15;;;16.80;99.90;;;;;;5009685;28;20046;-65
2023/09/13 02:46:57;;;;;;;4.85;1.20;;;16.80;99.90;;;;;;4991338;28;20057;-65
2023/09/13 02:49:24;;;;;;;6.63;1.30;;;16.70;99.90;;;;;;4991972;28;20112;-65
2023/09/13 02:51:51;;;;;;;3.33;0.85;;;16.70;99.90;;;;;;5008397;28;20050;-65
2023/09/13 02:54:17;;;;;;;6.70;0.90;;;16.70;99.90;;;;;;5009651;28;20630;-65
2023/09/13 02:56:44;;;;;;;5.03;1.08;;;16.70;99.90;;;;;;4974327;28;20077;-66
2023/09/13 02:59:10;;;;;;;6.88;1.10;;;16.70;99.90;;;;;;5014456;28;20056;-65
2023/09/13 03:01:35;;;;;;;5.40;1.20;;;16.80;99.90;;;;;;5009063;28;20037;-65
2023/09/13 03:04:02;;;;;;;3.65;1.52;;;16.70;99.90;;;;;;5008496;28;20045;-65
2023/09/13 03:06:29;;;;;;;5.63;1.83;;;16.70;99.90;;;;;;4999732;28;20493;-65
2023/09/13 03:08:58;;;;;;;6.60;1.63;;;16.70;99.90;;;;;;4990438;28;20077;-66
2023/09/13 03:11:24;;;;;;;9.03;1.27;;;16.60;99.90;;;;;;4991570;28;20155;-65
2023/09/13 03:13:49;;;;;;;2.85;0.65;;;16.60;99.90;;;;;;5007484;28;20081;-65
2023/09/13 03:16:17;;;;;;;4.38;0.90;;;16.50;99.90;;;;;;4977692;28;20661;-65
2023/09/13 03:18:44;;;;;;;10.80;1.42;;;16.50;99.90;;;;;;5008483;28;20057;-65
2023/09/13 03:21:10;;;;;;;5.82;0.95;;;16.50;99.90;;;;;;4989204;28;20045;-65
2023/09/13 03:23:44;;;;;;;7.47;1.40;;;16.50;99.90;;;;;;5008965;28;20487;-65
2023/09/13 03:26:18;;;;;;;3.83;0.90;;;16.50;99.90;;;;;;5007595;28;20050;-65
2023/09/13 03:28:49;;;;;;;5.35;1.35;;;16.50;99.90;;;;;;5008425;28;20050;-65
2023/09/13 03:31:17;;;;;;;7.07;1.20;;;16.40;99.90;;;;;;5006190;28;20058;-65
2023/09/13 03:33:43;;;;;;;5.10;1.50;;;16.50;99.90;;;;;;5007064;28;20049;-65
2023/09/13 03:36:11;;;;;;;4.32;1.23;;;16.40;99.90;;;;;;4990461;28;20057;-65
2023/09/13 03:38:38;;;;;;;9.43;1.60;;;16.40;99.90;;;;;;5007710;28;20488;-65
2023/09/13 03:41:08;;;;;;;3.30;1.00;;;16.30;99.90;;;;;;4991274;28;20519;-65
2023/09/13 03:43:34;;;;;;;2.78;1.13;;;16.20;99.90;;;;;;5002555;28;20037;-65
2023/09/13 03:46:01;;;;;;;4.35;1.00;;;16.20;99.90;;;;;;4997270;28;20046;-65
2023/09/13 03:48:30;;;;;;;1.52;0.80;;;16.20;99.90;;;;;;5008683;28;20037;-65
2023/09/13 03:50:56;;;;;;;3.87;1.17;;;16.20;99.90;;;;;;5007636;28;20042;-65
2023/09/13 03:53:22;;;;;;;2.45;0.73;;;16.10;99.90;;;;;;4990530;28;20053;-65
2023/09/13 03:55:47;;;;;;;6.53;1.08;;;16.10;99.90;;;;;;5006865;28;20052;-65
2023/09/13 03:58:13;;;;;;;5.97;1.20;;;16.00;99.90;;;;;;5006280;28;20053;-65
2023/09/13 04:00:39;;;;;;;1.30;0.82;;;15.90;99.90;;;;;;5006439;28;20073;-65
2023/09/13 04:03:05;;;;;;;5.05;1.25;;;15.90;99.90;;;;;;5008935;28;20058;-65
2023/09/13 04:05:31;;;;;;;2.63;1.00;;;15.90;99.90;;;;;;4990772;28;20042;-65
2023/09/13 04:07:57;;;;;;;5.32;1.58;;;15.90;99.90;;;;;;4998106;28;20066;-65
2023/09/13 04:10:23;;;;;;;5.38;0.93;;;15.90;99.90;;;;;;4989987;28;20542;-65
2023/09/13 04:12:49;;;;;;;3.60;1.70;;;15.80;99.90;;;;;;5007094;28;20129;-65
2023/09/13 04:15:16;;;;;;;7.88;1.30;;;15.80;99.90;;;;;;4974331;28;20141;-65
2023/09/13 04:17:43;;;;;;;3.13;1.13;;;15.80;99.90;;;;;;5005522;28;20500;-66
2023/09/13 04:20:11;;;;;;;5.40;1.40;;;15.80;99.90;;;;;;5008345;28;20046;-66
2023/09/13 04:22:37;;;;;;;3.75;1.15;;;15.80;99.90;;;;;;5005834;28;20042;-65
2023/09/13 04:25:04;;;;;;;7.00;1.38;;;15.80;99.90;;;;;;4994717;28;20042;-65
2023/09/13 04:27:30;;;;;;;2.67;0.93;;;15.80;99.90;;;;;;5012496;28;20523;-65
2023/09/13 04:29:56;;;;;;;7.25;0.98;;;15.80;99.90;;;;;;5006931;28;20084;-64
2023/09/13 04:32:24;;;;;;;3.38;1.20;;;15.80;99.90;;;;;;5007058;28;20050;-64
2023/09/13 04:34:50;;;;;;;3.45;1.17;;;15.80;99.90;;;;;;5005822;28;20125;-64
2023/09/13 04:37:16;;;;;;;3.85;1.27;;;15.80;99.90;;;;;;5005929;28;20917;-64
2023/09/13 04:39:42;;;;;;;6.05;2.08;;;15.70;99.90;;;;;;5009096;28;20096;-65
2023/09/13 04:42:08;;;;;;;8.68;1.05;;;15.80;99.90;;;;;;5013792;28;20128;-64
2023/09/13 04:44:34;;;;;;;5.38;0.98;;;15.70;99.90;;;;;;5010873;28;20048;-64
2023/09/13 04:47:00;;;;;;;6.88;1.55;;;15.70;99.90;;;;;;5006094;28;20046;-65
2023/09/13 04:49:27;;;;;;;5.80;1.20;;;15.70;99.90;;;;;;4997421;28;20042;-64
2023/09/13 04:51:54;;;;;;;3.28;0.85;;;15.70;99.90;;;;;;5015127;28;20104;-65
2023/09/13 04:54:22;;;;;;;5.53;1.33;;;15.70;99.90;;;;;;5008892;28;20776;-65
2023/09/13 04:56:50;;;;;;;9.00;1.67;;;15.70;99.90;;;;;;5008108;28;20052;-64
2023/09/13 04:59:15;;;;;;;3.55;1.10;;;15.70;99.90;;;;;;5007766;28;20476;-64
2023/09/13 05:01:41;;;;;;;6.70;1.52;;;15.70;99.90;;;;;;4988732;28;20092;-65
2023/09/13 05:04:07;;;;;;;4.70;1.15;;;15.70;99.90;;;;;;5006869;28;20450;-65
2023/09/13 05:06:33;;;;;;;10.25;1.40;;;15.80;99.90;;;;;;5006353;28;20135;-64
2023/09/13 05:08:59;;;;;;;4.75;1.48;;;15.70;99.90;;;;;;5006298;28;20107;-65
2023/09/13 05:11:25;;;;;;;3.90;1.20;;;15.70;99.90;;;;;;5006543;28;20117;-65
2023/09/13 05:14:07;;;;;;;3.05;1.30;;;15.80;99.90;;;;;;4987887;28;20563;-64
2023/09/13 05:16:32;;;;;;;10.00;1.38;;;15.70;99.90;;;;;;4989943;28;20045;-65
2023/09/13 05:18:58;;;;;;;6.75;1.38;;;15.70;99.90;;;;;;5005724;28;20050;-67
2023/09/13 05:21:24;;;;;;;9.77;1.67;;;15.60;99.90;;;;;;5006828;28;20443;-67
2023/09/13 05:23:49;;;;;;;9.80;1.75;;;15.50;99.90;;;;;;5004573;28;20056;-69
2023/09/13 05:26:15;;;;;;;9.90;1.60;;;15.50;99.90;;;;;;5005464;28;20061;-70
2023/09/13 05:28:42;;;;;;;10.88;1.98;;;15.30;99.90;;;;;;5006844;28;20045;-70
2023/09/13 05:31:07;;;;;;;12.57;1.63;;;15.20;99.90;;;;;;4970956;28;20492;-69
2023/09/13 05:33:34;;;;;;;6.28;1.48;;;15.10;99.90;;;;;;4989240;28;20061;-68
2023/09/13 05:36:00;;;;;;;7.45;1.55;;;15.10;99.90;;;;;;5004742;28;20115;-68
2023/09/13 05:38:26;;;;;;;7.88;1.75;;;15.00;99.90;;;;;;5007181;28;20033;-68
2023/09/13 05:40:51;;;;;;;4.38;1.13;;;15.00;99.90;;;;;;4986538;28;20054;-69
2023/09/13 05:43:17;;;;;;;3.78;1.30;;;14.90;99.90;;;;;;4988077;28;20064;-69
2023/09/13 05:45:43;;;;;;;7.88;1.40;;;14.80;99.90;;;;;;4972487;28;20393;-68
2023/09/13 05:48:08;;;;;;;6.05;1.58;;;14.80;99.90;;;;;;5005175;28;20048;-68
2023/09/13 05:50:34;;;;;;;4.30;1.48;;;14.80;99.90;;;;;;4988692;28;20483;-68
2023/09/13 05:53:00;;;;;;;5.72;1.45;;;14.60;99.90;;;;;;4986913;28;20049;-69
2023/09/13 05:55:25;;;;;;;4.28;1.13;;;14.70;99.90;;;;;;4985570;28;20081;-69
2023/09/13 05:57:52;;;;;;;7.07;1.60;;;14.60;99.90;;;;;;4969966;28;20524;-68
2023/09/13 06:00:18;;;;;;;4.03;1.65;;;14.60;99.90;;;;;;5006079;28;20037;-68
2023/09/13 06:02:44;;;;;;;6.82;1.48;;;14.60;99.90;;;;;;4972081;28;20041;-68
2023/09/13 06:05:10;;;;;;;8.05;1.40;;;14.60;99.90;;;;;;4986765;28;20407;-68
2023/09/13 06:07:37;;;;;;;10.88;1.83;;;14.50;99.90;;;;;;5006348;28;20130;-68
2023/09/13 06:10:03;;;;;;;8.45;1.58;;;14.50;99.90;;;;;;4986949;28;20049;-67
2023/09/13 06:12:31;;;;;;;8.13;1.63;;;14.40;99.90;;;;;;4988759;28;20054;-68
2023/09/13 06:14:57;;;;;;;13.05;2.13;;;14.40;99.90;;;;;;4987020;28;20084;-68
2023/09/13 06:17:23;;;;;;;7.40;1.73;;;14.50;99.90;;;;;;5005672;28;20052;-68
2023/09/13 06:19:50;;;;;;;6.97;1.58;;;14.50;99.90;;;;;;4987907;28;20082;-69
2023/09/13 06:22:17;;;;;;;4.72;1.40;;;14.50;99.90;;;;;;4987230;28;20050;-69
2023/09/13 06:24:43;;;;;;;10.27;1.65;;;14.40;99.90;;;;;;4968980;28;20093;-69
2023/09/13 06:27:09;;;;;;;6.82;1.75;;;14.50;99.90;;;;;;5004502;28;20065;-69
2023/09/13 06:29:35;;;;;;;6.68;1.58;;;14.40;99.90;;;;;;4985379;28;20042;-69
2023/09/13 06:32:02;;;;;;;5.70;2.00;;;14.50;99.90;;;;;;4996496;28;20058;-69
2023/09/13 06:34:28;;;;;;;6.00;1.23;;;14.40;99.90;;;;;;4986423;28;20481;-69
2023/09/13 06:36:55;;;;;;;5.95;1.80;;;14.40;99.90;;;;;;4970909;28;20120;-69
2023/09/13 06:39:21;;;;;;;6.43;1.45;;;14.30;99.90;;;;;;4987842;28;20551;-69
2023/09/13 06:41:47;;;;;;;7.97;1.98;;;14.30;99.90;;;;;;4971381;28;20056;-70
2023/09/13 06:44:17;;;;;;;7.20;2.13;;;14.30;99.90;;;;;;4978330;28;20056;-69
2023/09/13 06:46:43;;;;;;;10.52;1.90;;;14.30;99.90;;;;;;4989118;28;20049;-70
2023/09/13 06:49:08;;;;;;;7.75;1.75;;;14.20;99.90;;;;;;4986672;28;20054;-70
2023/09/13 06:51:34;;;;;;;8.15;2.05;;;14.10;99.90;;;;;;4971584;28;20162;-70
2023/09/13 06:54:00;;;;;;;4.22;1.85;;;14.20;99.90;;;;;;4987035;28;20054;-69
2023/09/13 06:56:25;;;;;;;11.25;2.33;;;14.20;99.90;;;;;;4987579;28;20041;-70
2023/09/13 06:58:53;;;;;;;9.15;1.73;;;14.30;99.90;;;;;;4970863;28;20065;-69
2023/09/13 07:01:19;;;;;;;10.80;2.53;;;14.30;99.90;;;;;;4989614;28;20061;-68
2023/09/13 07:03:45;;;;;;;10.10;2.05;;;14.40;99.90;;;;;;5009324;28;20587;-70
2023/09/13 07:06:13;;;;;;;14.48;2.30;;;14.40;99.90;;;;;;4970911;28;20629;-69
2023/09/13 07:08:39;;;;;;;15.05;2.53;;;14.40;99.90;;;;;;5006884;28;20038;-69
2023/09/13 07:11:05;;;;;;;11.20;2.15;;;14.50;99.90;;;;;;4973767;28;20041;-69
2023/09/13 07:13:31;;;;;;;7.50;1.95;;;14.60;99.90;;;;;;4991261;28;20049;-69
2023/09/13 07:15:57;;;;;;;7.38;1.92;;;14.50;99.90;;;;;;5008656;28;20104;-69
2023/09/13 07:18:24;;;;;;;8.00;1.88;;;14.50;99.90;;;;;;5008546;28;20053;-69
2023/09/13 07:20:49;;;;;;;4.28;1.98;;;14.50;99.90;;;;;;5011882;28;20062;-68
2023/09/13 07:23:15;;;;;;;6.50;2.33;;;14.50;99.90;;;;;;4989887;28;20041;-69
2023/09/13 07:25:41;;;;;;;5.50;1.85;;;14.40;99.90;;;;;;4991843;28;20054;-69
2023/09/13 07:28:07;;;;;;;6.43;1.60;;;14.40;99.90;;;;;;4954491;28;20765;-68
2023/09/13 07:30:33;;;;;;;5.78;2.00;;;14.50;99.90;;;;;;5008148;28;20041;-68
2023/09/13 07:33:00;;;;;;;4.90;1.27;;;14.50;99.90;;;;;;5007197;28;20053;-69
2023/09/13 07:35:26;;;;;;;4.15;1.63;;;14.50;99.90;;;;;;4987699;28;20054;-69
2023/09/13 07:37:51;;;;;;;7.03;1.73;;;14.60;99.90;;;;;;4989311;28;20481;-69
2023/09/13 07:40:17;;;;;;;8.18;1.73;;;14.70;99.90;;;;;;4986938;28;20089;-69
2023/09/13 07:42:43;;;;;;;9.05;1.45;;;14.70;99.90;;;;;;5006804;28;20046;-69
2023/09/13 07:45:09;;;;;;;6.38;1.38;;;14.80;99.90;;;;;;4986840;28;20058;-69
2023/09/13 07:47:35;;;;;;;4.97;1.65;;;14.80;99.90;;;;;;5005217;28;20126;-69
2023/09/13 07:50:01;;;;;;;7.18;1.60;;;14.80;99.90;;;;;;5004972;28;20124;-69
2023/09/13 07:52:27;;;;;;;5.00;1.33;;;14.90;99.90;;;;;;5007658;28;20046;-69
2023/09/13 07:54:52;;;;;;;5.22;1.88;;;15.00;99.90;;;;;;4973769;28;20041;-69
2023/09/13 07:57:18;;;;;;;6.95;1.38;;;14.90;99.90;;;;;;5007450;28;20050;-69
2023/09/13 07:59:44;;;;;;;13.48;2.10;;;15.00;99.90;;;;;;5008181;28;20480;-69
2023/09/13 08:02:10;;;;;;;9.65;1.25;;;15.00;99.90;;;;;;4988760;28;20089;-69
2023/09/13 08:04:36;;;;;;;8.65;1.45;;;15.00;99.90;;;;;;5007861;28;20568;-69
2023/09/13 08:07:02;;;;;;;9.20;1.85;;;15.00;99.90;;;;;;5007213;28;20119;-69
2023/09/13 08:09:28;;;;;;;5.28;1.45;;;15.00;99.90;;;;;;5008243;28;20531;-70
2023/09/13 08:11:54;;;;;;;8.88;2.38;;;14.90;99.90;;;;;;5006716;28;20058;-69
2023/09/13 08:14:20;;;;;;;5.38;1.67;;;14.90;99.90;;;;;;5007562;28;20077;-69
2023/09/13 08:16:46;;;;;;;8.07;1.55;;;15.00;99.90;;;;;;4990216;28;20104;-69
2023/09/13 08:19:12;;;;;;;10.18;1.55;;;15.00;99.90;;;;;;5007048;28;20455;-69
2023/09/13 08:21:39;;;;;;;6.30;1.20;;;15.10;99.90;;;;;;4990184;28;20068;-69
2023/09/13 08:24:05;;;;;;;4.50;1.33;;;15.10;99.90;;;;;;4988758;28;20049;-69
2023/09/13 08:26:31;;;;;;;6.35;1.20;;;15.20;99.90;;;;;;5007820;28;20123;-69
2023/09/13 08:28:57;;;;;;;6.85;1.70;;;15.20;99.90;;;;;;4989099;28;20068;-68
2023/09/13 08:31:25;;;;;;;2.70;1.50;;;15.30;99.90;;;;;;4989640;28;20075;-68
2023/09/13 08:33:54;;;;;;;12.07;1.40;;;15.30;99.90;;;;;;4988746;28;20610;-68
2023/09/13 08:36:21;;;;;;;8.70;2.05;;;15.30;99.90;;;;;;5006928;28;20048;-68
2023/09/13 08:38:46;;;;;;;5.45;1.27;;;15.30;99.90;;;;;;4987996;28;20118;-68
2023/09/13 08:41:14;;;;;;;5.75;1.90;;;15.30;99.90;;;;;;5007326;28;20073;-68
2023/09/13 08:43:41;;;;;;;9.45;2.17;;;15.40;99.90;;;;;;4989216;28;20084;-68
2023/09/13 08:46:08;;;;;;;9.68;1.63;;;15.40;99.90;;;;;;4989105;28;20518;-68
2023/09/13 08:48:42;;;;;;;12.05;1.90;;;15.40;99.90;;;;;;4976732;28;20060;-68
2023/09/13 08:51:08;;;;;;;9.32;1.60;;;15.60;99.90;;;;;;4985799;28;20050;-68
2023/09/13 08:53:35;;;;;;;8.77;1.80;;;15.60;99.90;;;;;;5004471;28;20484;-67
2023/09/13 08:56:01;;;;;;;9.98;1.98;;;15.70;99.90;;;;;;4989262;28;20042;-68
2023/09/13 08:58:27;;;;;;;13.05;2.17;;;15.80;99.90;;;;;;4998728;28;20053;-68
2023/09/13 09:00:56;;;;;;;4.55;1.80;;;15.90;99.90;;;;;;5007418;28;20046;-68
2023/09/13 09:03:24;;;;;;;8.15;1.70;;;15.90;99.90;;;;;;4988353;28;20053;-68
2023/09/13 09:05:51;;;;;;;7.63;1.85;;;15.90;99.90;;;;;;5004211;28;20049;-68
2023/09/13 09:08:18;;;;;;;7.57;1.77;;;15.90;99.90;;;;;;5006430;28;20104;-68
2023/09/13 09:10:45;;;;;;;3.67;1.55;;;15.90;99.90;;;;;;4986593;28;20050;-68
2023/09/13 09:13:12;;;;;;;8.75;1.60;;;16.00;99.90;;;;;;4988668;28;20050;-68
2023/09/13 09:15:39;;;;;;;5.75;1.52;;;16.10;99.90;;;;;;5005636;28;20081;-68
2023/09/13 09:18:09;;;;;;;7.95;1.90;;;16.20;99.90;;;;;;4989669;28;20148;-68
2023/09/13 09:20:39;;;;;;;5.20;1.67;;;16.20;99.90;;;;;;4987565;28;20077;-68
2023/09/13 09:23:08;;;;;;;;;;;16.20;99.90;;;;;;5007472;28;20042;-67
2023/09/13 09:25:38;;;;;;;6.22;1.33;;;16.30;99.90;;;;;;5004780;28;19928;-68
2023/09/13 09:28:05;;;;;;;6.13;1.45;;;16.30;99.90;;;;;;4973004;28;20050;-68
2023/09/13 09:30:32;;;;;;;10.90;1.83;;;16.40;99.90;;;;;;4988461;28;20045;-68
2023/09/13 09:33:06;;;;;;;7.80;1.75;;;16.50;99.90;;;;;;4968146;28;20062;-68
2023/09/13 09:35:33;;;;;;;10.30;2.00;;;16.50;99.90;;;;;;4996736;28;20480;-68
2023/09/13 09:37:59;;;;;;;8.65;2.45;;;16.50;99.90;;;;;;5004229;28;20052;-68
2023/09/13 09:40:25;;;;;;;8.27;1.92;;;16.30;99.90;;;;;;5006788;28;20045;-69
2023/09/13 09:42:55;;;;;;;6.72;1.85;;;16.30;99.90;;;;;;5004884;28;20052;-67
2023/09/13 09:45:22;;;;;;;9.77;1.63;;;16.30;99.90;;;;;;4985553;28;20109;-68
2023/09/13 09:47:50;;;;;;;5.32;1.80;;;16.20;99.90;;;;;;5003295;28;20054;-67
2023/09/13 09:50:17;;;;;;;5.85;1.48;;;16.20;99.90;;;;;;4984814;28;20456;-68
2023/09/13 09:52:48;;;;;;;3.53;1.23;;;16.30;99.90;;;;;;4985848;28;20627;-68
2023/09/13 09:55:15;;;;;;;7.28;1.48;;;16.30;99.90;;;;;;5005396;28;20144;-68
2023/09/13 09:57:49;;;;;;;9.02;2.00;;;16.40;99.90;;;;;;5006095;28;20488;-67
2023/09/13 10:00:16;;;;;;;13.80;1.90;;;16.40;99.90;;;;;;4984626;28;20089;-68
2023/09/13 10:02:45;;;;;;;5.95;1.70;;;16.40;99.90;;;;;;5003028;28;20133;-68
2023/09/13 10:05:17;;;;;;;;;;;16.30;99.90;;;;;;4988589;28;21688;-68
2023/09/13 10:07:57;;;;;;;10.38;2.30;;;16.30;99.90;;;;;;4987110;28;20004;-68
2023/09/13 10:10:30;;;;;;;6.40;1.45;;;16.40;99.90;;;;;;5005673;28;20489;-68
2023/09/13 10:12:56;;;;;;;4.63;1.17;;;16.40;99.90;;;;;;4991277;28;20049;-67
2023/09/13 10:15:23;;;;;;;5.13;2.15;;;16.50;99.90;;;;;;5000563;28;20381;-68
2023/09/13 10:17:49;;;;;;;7.68;1.70;;;16.60;99.90;;;;;;4986117;28;20133;-68
2023/09/13 10:20:19;;;;;;;3.88;1.73;;;16.70;99.90;;;;;;4971629;28;20064;-67
2023/09/13 10:22:49;;;;;;;12.45;1.90;;;16.80;99.90;;;;;;4986405;28;20077;-67
2023/09/13 10:25:18;;;;;;;5.30;1.60;;;16.80;99.90;;;;;;5004723;28;20037;-67
2023/09/13 10:27:50;;;;;;;7.83;2.20;;;16.90;99.90;;;;;;5005858;28;20378;-67
2023/09/13 10:30:21;;;;;;;5.32;1.48;;;17.00;99.90;;;;;;5002075;28;20280;-67
2023/09/13 10:32:55;;;;;;;8.18;1.60;;;17.00;99.90;;;;;;5003614;28;20347;-67
2023/09/13 10:35:21;;;;;;;3.97;1.65;;;17.10;99.90;;;;;;4983712;28;20176;-67
2023/09/13 10:37:56;;;;;;;3.97;1.40;;;17.10;99.90;;;;;;4986688;28;20051;-67
2023/09/13 10:40:23;;;;;;;4.75;2.08;;;17.20;99.90;;;;;;5009040;28;20575;-67
2023/09/13 10:42:49;;;;;;;6.05;1.23;;;17.20;99.90;;;;;;4989785;28;20682;-67
2023/09/13 10:45:18;;;;;;;4.35;1.67;;;17.20;99.10;;;;;;4990947;28;20100;-67
2023/09/13 10:47:50;;;;;;;5.82;1.98;;;17.20;97.20;;;;;;4974228;28;20037;-67
2023/09/13 10:50:17;;;;;;;3.97;1.75;;;17.20;93.90;;;;;;4975290;28;20486;-67
2023/09/13 10:52:44;;;;;;;4.10;1.35;;;17.20;95.50;;;;;;5008123;28;20132;-67
2023/09/13 10:55:11;;;;;;;3.72;1.45;;;17.20;99.60;;;;;;5007888;28;20046;-67
2023/09/13 10:57:40;;;;;;;2.88;1.38;;;17.40;95.00;;;;;;5008345;28;20050;-67
2023/09/13 11:00:10;;;;;;;3.65;1.52;;;17.50;98.80;;;;;;5007229;28;20041;-67
2023/09/13 11:02:37;;;;;;;;;;;17.40;80.20;;;;;;5008822;28;20057;-67
2023/09/13 11:05:04;;;;;;;2.55;1.17;;;17.30;83.20;;;;;;4986962;28;19925;-66
2023/09/13 11:07:32;;;;;;;8.68;1.52;;;17.30;95.10;;;;;;4971105;28;20042;-67
2023/09/13 11:10:05;;;;;;;3.45;1.55;;;17.40;95.70;;;;;;5007915;28;20602;-67
2023/09/13 11:12:35;;;;;;;7.85;1.25;;;17.40;91.10;;;;;;4987796;28;20046;-67
2023/09/13 11:15:24;;;;;;;7.10;1.52;;;17.50;94.10;;;;;;5008713;28;20061;-66
2023/09/13 11:17:54;;;;;;;6.50;1.25;;;17.50;82.60;;;;;;5005840;28;20057;-67
2023/09/13 11:20:21;;;;;;;4.20;1.25;;;17.50;76.30;;;;;;4985770;28;20054;-67
2023/09/13 11:23:10;;;;;;;7.78;1.63;;;17.60;84.90;;;;;;4987562;28;20050;-67
2023/09/13 11:25:41;;;;;;;4.72;1.10;;;17.70;75.90;;;;;;5006520;28;20056;-67
2023/09/13 11:28:08;;;;;;;3.97;1.38;;;17.80;91.50;;;;;;4973788;28;20041;-67
2023/09/13 11:30:51;;;;;;;8.00;1.60;;;17.80;76.90;;;;;;5006136;28;20041;-67
2023/09/13 11:33:18;;;;;;;8.98;1.92;;;17.90;76.60;;;;;;5006331;28;20463;-67
2023/09/13 11:35:46;;;;;;;6.93;1.25;;;17.90;66.30;;;;;;5007130;28;20056;-66
2023/09/13 11:38:13;;;;;;;7.00;1.50;;;17.80;61.70;;;;;;5007826;28;20061;-67
2023/09/13 11:40:46;;;;;;;6.57;1.80;;;17.60;64.80;;;;;;5007594;28;20089;-67
2023/09/13 11:43:12;;;;;;;7.47;1.17;;;17.70;82.60;;;;;;5006852;28;20396;-67
2023/09/13 11:45:40;;;;;;;8.70;1.67;;;17.70;76.60;;;;;;4988059;28;20129;-66
2023/09/13 11:48:07;;;;;;;5.18;1.02;;;17.80;74.30;;;;;;4987441;28;20046;-67
2023/09/13 11:50:50;;;;;;;6.97;1.83;;;17.80;75.00;;;;;;4974306;28;20053;-66
2023/09/13 11:53:26;;;;;;;7.10;1.40;;;17.80;73.00;;;;;;5003762;28;20116;-66
2023/09/13 11:55:55;;;;;;;4.18;1.17;;;17.80;73.50;;;;;;4966437;28;20050;-67
2023/09/13 11:58:32;;;;;;;7.17;1.30;;;17.90;86.70;;;;;;5007307;28;20530;-66
2023/09/13 12:01:00;;;;;;;7.15;1.40;;;17.80;64.40;;;;;;4989147;28;20054;-66
2023/09/13 12:03:30;;;;;;;6.10;1.13;;;17.90;68.50;;;;;;5007715;28;20120;-67
2023/09/13 12:05:57;;;;;;;4.75;1.00;;;18.00;73.20;;;;;;5006937;28;20046;-67
2023/09/13 12:08:24;;;;;;;7.43;1.58;;;18.10;70.70;;;;;;5007257;28;20054;-66
2023/09/13 12:10:50;;;;;;;8.65;2.47;;;18.10;70.30;;;;;;4989642;28;20045;-67
2023/09/13 12:13:17;;;;;;;2.72;0.98;;;18.20;76.90;;;;;;4989330;28;20531;-67
2023/09/13 12:16:02;;;;;;;6.25;1.35;;;18.40;70.50;;;;;;5008084;28;20046;-67
2023/09/13 12:18:31;;;;;;;4.43;1.27;;;18.30;61.50;;;;;;5006455;28;20556;-67
2023/09/13 12:20:58;;;;;;;5.78;1.08;;;18.20;68.70;;;;;;5007592;28;20095;-67
2023/09/13 12:23:25;;;;;;;4.65;1.35;;;18.10;66.80;;;;;;5007071;28;20042;-67
2023/09/13 12:25:55;;;;;;;6.72;1.85;;;17.90;65.10;;;;;;5006472;28;20048;-66
2023/09/13 12:28:33;;;;;;;3.20;1.27;;;17.70;73.00;;;;;;4989973;28;20662;-67
2023/09/13 12:31:03;;;;;;;7.72;1.50;;;17.40;68.50;;;;;;4988560;28;20049;-67
2023/09/13 12:33:29;;;;;;;6.22;1.23;;;17.30;68.40;;;;;;5006064;28;20555;-67
2023/09/13 12:35:54;;;;;;;8.27;1.50;;;17.20;71.10;;;;;;5005774;28;20129;-67
2023/09/13 12:38:21;;;;;;;3.80;1.23;;;17.20;62.40;;;;;;5007473;28;20117;-67
2023/09/13 12:40:54;;;;;;;8.95;1.60;;;17.30;49.60;;;;;;4989347;28;20046;-67
2023/09/13 12:43:28;;;;;;;8.70;1.95;;;17.30;54.00;;;;;;4988939;28;20042;-67
2023/09/13 12:45:55;;;;;;;8.63;1.45;;;17.40;54.40;;;;;;5007927;28;20050;-67
2023/09/13 12:48:21;;;;;;;10.45;1.60;;;17.40;45.20;;;;;;4985450;28;20085;-67
2023/09/13 12:50:47;;;;;;;3.78;1.45;;;17.40;48.80;;;;;;5006212;28;20074;-67